sensor_id;sensor_type;location;lat;lon;timestamp;P1;durP1;ratioP1;P2;durP2;ratioP2
29026;SDS011;16120;48.608;9.092;2023-09-30T00:00:07;106.20;;;9.40;;
29026;SDS011;16120;48.608;9.092;2023-09-30T00:04:03;106.90;;;9.40;;
29026;SDS011;16120;48.608;9.092;2023-09-30T00:07:59;107.87;;;10.30;;
29026;SDS011;16120;48.608;9.092;2023-09-30T00:11:54;107.87;;;9.70;;
29026;SDS011;16120;48.608;9.092;2023-09-30T00:15:49;106.67;;;9.77;;
29026;SDS011;16120;48.608;9.092;2023-09-30T00:19:46;107.93;;;9.50;;
29026;SDS011;16120;48.608;9.092;2023-09-30T00:23:41;107.50;;;9.93;;
29026;SDS011;16120;48.608;9.092;2023-09-30T00:27:36;107.60;;;10.10;;
29026;SDS011;16120;48.608;9.092;2023-09-30T00:31:32;108.20;;;10.07;;
29026;SDS011;16120;48.608;9.092;2023-09-30T00:35:28;107.63;;;10.20;;
29026;SDS011;16120;48.608;9.092;2023-09-30T00:39:23;107.53;;;9.80;;
29026;SDS011;16120;48.608;9.092;2023-09-30T00:43:19;107.90;;;10.00;;
29026;SDS011;16120;48.608;9.092;2023-09-30T00:47:14;107.97;;;10.80;;
29026;SDS011;16120;48.608;9.092;2023-09-30T00:51:10;107.93;;;9.05;;
29026;SDS011;16120;48.608;9.092;2023-09-30T00:55:06;107.97;;;9.87;;
29026;SDS011;16120;48.608;9.092;2023-09-30T00:59:02;107.90;;;9.40;;
29026;SDS011;16120;48.608;9.092;2023-09-30T01:02:58;108.50;;;10.00;;
29026;SDS011;16120;48.608;9.092;2023-09-30T01:06:55;108.13;;;9.83;;
29026;SDS011;16120;48.608;9.092;2023-09-30T01:10:50;108.30;;;9.43;;
29026;SDS011;16120;48.608;9.092;2023-09-30T01:14:45;107.90;;;9.70;;
29026;SDS011;16120;48.608;9.092;2023-09-30T01:18:40;109.23;;;9.80;;
29026;SDS011;16120;48.608;9.092;2023-09-30T01:22:37;107.70;;;9.30;;
29026;SDS011;16120;48.608;9.092;2023-09-30T01:26:32;108.90;;;9.90;;
29026;SDS011;16120;48.608;9.092;2023-09-30T01:30:27;108.00;;;10.00;;
29026;SDS011;16120;48.608;9.092;2023-09-30T01:34:23;108.57;;;9.47;;
29026;SDS011;16120;48.608;9.092;2023-09-30T01:38:19;108.20;;;9.50;;
29026;SDS011;16120;48.608;9.092;2023-09-30T01:42:15;108.13;;;9.90;;
29026;SDS011;16120;48.608;9.092;2023-09-30T01:46:10;109.07;;;10.20;;
29026;SDS011;16120;48.608;9.092;2023-09-30T01:50:05;107.97;;;9.87;;
29026;SDS011;16120;48.608;9.092;2023-09-30T01:54:02;110.07;;;10.43;;
29026;SDS011;16120;48.608;9.092;2023-09-30T01:57:57;108.17;;;9.87;;
29026;SDS011;16120;48.608;9.092;2023-09-30T02:01:55;108.90;;;9.57;;
29026;SDS011;16120;48.608;9.092;2023-09-30T02:05:51;108.50;;;10.20;;
29026;SDS011;16120;48.608;9.092;2023-09-30T02:09:48;108.50;;;10.17;;
29026;SDS011;16120;48.608;9.092;2023-09-30T02:13:44;108.67;;;10.00;;
29026;SDS011;16120;48.608;9.092;2023-09-30T02:17:39;108.27;;;10.17;;
29026;SDS011;16120;48.608;9.092;2023-09-30T02:21:34;109.43;;;9.87;;
29026;SDS011;16120;48.608;9.092;2023-09-30T02:25:31;108.60;;;10.17;;
29026;SDS011;16120;48.608;9.092;2023-09-30T02:29:26;109.47;;;9.33;;
29026;SDS011;16120;48.608;9.092;2023-09-30T02:33:21;109.87;;;9.50;;
29026;SDS011;16120;48.608;9.092;2023-09-30T02:37:16;109.90;;;9.30;;
29026;SDS011;16120;48.608;9.092;2023-09-30T02:41:14;108.63;;;9.02;;
29026;SDS011;16120;48.608;9.092;2023-09-30T02:45:10;108.73;;;9.30;;
29026;SDS011;16120;48.608;9.092;2023-09-30T02:49:06;108.60;;;10.10;;
29026;SDS011;16120;48.608;9.092;2023-09-30T02:53:01;109.67;;;9.70;;
29026;SDS011;16120;48.608;9.092;2023-09-30T02:56:58;108.70;;;9.03;;
29026;SDS011;16120;48.608;9.092;2023-09-30T03:00:53;109.37;;;9.53;;
29026;SDS011;16120;48.608;9.092;2023-09-30T03:04:48;109.87;;;9.93;;
29026;SDS011;16120;48.608;9.092;2023-09-30T03:08:43;109.28;;;10.18;;
29026;SDS011;16120;48.608;9.092;2023-09-30T03:12:40;109.57;;;9.83;;
29026;SDS011;16120;48.608;9.092;2023-09-30T03:16:35;108.97;;;9.30;;
29026;SDS011;16120;48.608;9.092;2023-09-30T03:20:30;110.10;;;9.83;;
29026;SDS011;16120;48.608;9.092;2023-09-30T03:24:25;109.97;;;9.70;;
29026;SDS011;16120;48.608;9.092;2023-09-30T03:28:22;110.10;;;9.03;;
29026;SDS011;16120;48.608;9.092;2023-09-30T03:32:17;109.80;;;9.57;;
29026;SDS011;16120;48.608;9.092;2023-09-30T03:36:12;110.40;;;9.70;;
29026;SDS011;16120;48.608;9.092;2023-09-30T03:40:08;109.47;;;9.20;;
29026;SDS011;16120;48.608;9.092;2023-09-30T03:44:04;109.37;;;9.10;;
29026;SDS011;16120;48.608;9.092;2023-09-30T03:48:00;110.50;;;10.40;;
29026;SDS011;16120;48.608;9.092;2023-09-30T03:51:56;109.60;;;10.03;;
29026;SDS011;16120;48.608;9.092;2023-09-30T03:55:51;110.30;;;9.77;;
29026;SDS011;16120;48.608;9.092;2023-09-30T03:59:47;109.80;;;9.87;;
29026;SDS011;16120;48.608;9.092;2023-09-30T04:03:43;109.87;;;9.63;;
29026;SDS011;16120;48.608;9.092;2023-09-30T04:07:38;109.00;;;10.07;;
29026;SDS011;16120;48.608;9.092;2023-09-30T04:11:33;111.07;;;10.53;;
29026;SDS011;16120;48.608;9.092;2023-09-30T04:15:30;111.10;;;11.00;;
29026;SDS011;16120;48.608;9.092;2023-09-30T04:19:25;110.30;;;9.63;;
29026;SDS011;16120;48.608;9.092;2023-09-30T04:23:20;110.17;;;9.93;;
29026;SDS011;16120;48.608;9.092;2023-09-30T04:27:15;110.37;;;10.07;;
29026;SDS011;16120;48.608;9.092;2023-09-30T04:31:15;109.80;;;9.90;;
29026;SDS011;16120;48.608;9.092;2023-09-30T04:35:10;110.87;;;10.43;;
29026;SDS011;16120;48.608;9.092;2023-09-30T04:43:10;109.80;;;9.40;;
29026;SDS011;16120;48.608;9.092;2023-09-30T04:47:07;110.47;;;9.93;;
29026;SDS011;16120;48.608;9.092;2023-09-30T04:51:05;109.90;;;9.93;;
29026;SDS011;16120;48.608;9.092;2023-09-30T04:55:00;109.20;;;9.50;;
29026;SDS011;16120;48.608;9.092;2023-09-30T04:58:56;109.90;;;10.55;;
29026;SDS011;16120;48.608;9.092;2023-09-30T05:02:54;110.80;;;10.13;;
29026;SDS011;16120;48.608;9.092;2023-09-30T05:06:50;109.80;;;9.40;;
29026;SDS011;16120;48.608;9.092;2023-09-30T05:10:45;110.47;;;10.03;;
29026;SDS011;16120;48.608;9.092;2023-09-30T05:14:40;110.57;;;9.63;;
29026;SDS011;16120;48.608;9.092;2023-09-30T05:18:37;110.37;;;9.63;;
29026;SDS011;16120;48.608;9.092;2023-09-30T05:22:32;109.60;;;9.97;;
29026;SDS011;16120;48.608;9.092;2023-09-30T05:26:27;110.15;;;9.40;;
29026;SDS011;16120;48.608;9.092;2023-09-30T05:30:22;110.57;;;9.53;;
29026;SDS011;16120;48.608;9.092;2023-09-30T05:34:19;111.07;;;9.40;;
29026;SDS011;16120;48.608;9.092;2023-09-30T05:38:14;110.60;;;9.60;;
29026;SDS011;16120;48.608;9.092;2023-09-30T05:42:09;110.60;;;9.90;;
29026;SDS011;16120;48.608;9.092;2023-09-30T05:46:05;110.47;;;10.00;;
29026;SDS011;16120;48.608;9.092;2023-09-30T05:50:02;110.17;;;9.10;;
29026;SDS011;16120;48.608;9.092;2023-09-30T05:53:57;110.87;;;9.70;;
29026;SDS011;16120;48.608;9.092;2023-09-30T05:57:52;109.17;;;8.90;;
29026;SDS011;16120;48.608;9.092;2023-09-30T06:01:47;110.30;;;9.27;;
29026;SDS011;16120;48.608;9.092;2023-09-30T06:05:44;110.57;;;9.17;;
29026;SDS011;16120;48.608;9.092;2023-09-30T06:09:39;110.50;;;9.50;;
29026;SDS011;16120;48.608;9.092;2023-09-30T06:13:34;110.30;;;9.17;;
29026;SDS011;16120;48.608;9.092;2023-09-30T06:17:30;110.50;;;9.27;;
29026;SDS011;16120;48.608;9.092;2023-09-30T06:21:27;110.57;;;9.43;;
29026;SDS011;16120;48.608;9.092;2023-09-30T06:25:22;110.80;;;9.77;;
29026;SDS011;16120;48.608;9.092;2023-09-30T06:29:18;109.70;;;9.57;;
29026;SDS011;16120;48.608;9.092;2023-09-30T06:33:13;110.23;;;9.70;;
29026;SDS011;16120;48.608;9.092;2023-09-30T06:37:11;110.43;;;10.00;;
29026;SDS011;16120;48.608;9.092;2023-09-30T06:41:06;110.70;;;10.40;;
29026;SDS011;16120;48.608;9.092;2023-09-30T06:45:02;110.07;;;10.07;;
29026;SDS011;16120;48.608;9.092;2023-09-30T06:48:57;109.47;;;10.30;;
29026;SDS011;16120;48.608;9.092;2023-09-30T06:52:53;109.23;;;9.73;;
29026;SDS011;16120;48.608;9.092;2023-09-30T06:56:49;108.87;;;10.23;;
29026;SDS011;16120;48.608;9.092;2023-09-30T07:00:44;110.47;;;10.33;;
29026;SDS011;16120;48.608;9.092;2023-09-30T07:04:39;110.00;;;9.93;;
29026;SDS011;16120;48.608;9.092;2023-09-30T07:08:36;108.87;;;10.30;;
29026;SDS011;16120;48.608;9.092;2023-09-30T07:12:33;109.30;;;10.17;;
29026;SDS011;16120;48.608;9.092;2023-09-30T07:16:28;109.90;;;10.80;;
29026;SDS011;16120;48.608;9.092;2023-09-30T07:20:23;108.37;;;10.40;;
29026;SDS011;16120;48.608;9.092;2023-09-30T07:24:20;109.60;;;10.60;;
29026;SDS011;16120;48.608;9.092;2023-09-30T07:28:15;108.97;;;10.07;;
29026;SDS011;16120;48.608;9.092;2023-09-30T07:32:10;109.10;;;10.50;;
29026;SDS011;16120;48.608;9.092;2023-09-30T07:36:09;108.10;;;10.87;;
29026;SDS011;16120;48.608;9.092;2023-09-30T07:40:06;107.77;;;10.63;;
29026;SDS011;16120;48.608;9.092;2023-09-30T07:44:02;108.87;;;11.33;;
29026;SDS011;16120;48.608;9.092;2023-09-30T07:47:57;107.10;;;10.37;;
29026;SDS011;16120;48.608;9.092;2023-09-30T07:51:52;107.47;;;10.50;;
29026;SDS011;16120;48.608;9.092;2023-09-30T07:55:49;107.90;;;11.27;;
29026;SDS011;16120;48.608;9.092;2023-09-30T07:59:46;107.27;;;10.67;;
29026;SDS011;16120;48.608;9.092;2023-09-30T08:03:41;107.30;;;11.10;;
29026;SDS011;16120;48.608;9.092;2023-09-30T08:07:38;107.93;;;11.33;;
29026;SDS011;16120;48.608;9.092;2023-09-30T08:11:35;107.37;;;10.77;;
29026;SDS011;16120;48.608;9.092;2023-09-30T08:15:30;106.87;;;10.97;;
29026;SDS011;16120;48.608;9.092;2023-09-30T08:19:25;107.93;;;10.73;;
29026;SDS011;16120;48.608;9.092;2023-09-30T08:23:21;107.30;;;10.17;;
29026;SDS011;16120;48.608;9.092;2023-09-30T08:27:17;108.20;;;11.17;;
29026;SDS011;16120;48.608;9.092;2023-09-30T08:31:12;106.60;;;10.73;;
29026;SDS011;16120;48.608;9.092;2023-09-30T08:35:08;106.60;;;10.30;;
29026;SDS011;16120;48.608;9.092;2023-09-30T08:39:03;107.10;;;10.70;;
29026;SDS011;16120;48.608;9.092;2023-09-30T08:43:00;107.07;;;10.97;;
29026;SDS011;16120;48.608;9.092;2023-09-30T08:46:58;106.37;;;10.47;;
29026;SDS011;16120;48.608;9.092;2023-09-30T08:50:54;106.33;;;10.80;;
29026;SDS011;16120;48.608;9.092;2023-09-30T08:54:49;106.17;;;10.70;;
29026;SDS011;16120;48.608;9.092;2023-09-30T08:58:45;105.10;;;10.20;;
29026;SDS011;16120;48.608;9.092;2023-09-30T09:06:54;105.00;;;10.20;;
29026;SDS011;16120;48.608;9.092;2023-09-30T09:10:53;104.77;;;10.47;;
29026;SDS011;16120;48.608;9.092;2023-09-30T09:14:50;104.97;;;10.50;;
29026;SDS011;16120;48.608;9.092;2023-09-30T09:18:45;105.30;;;10.70;;
29026;SDS011;16120;48.608;9.092;2023-09-30T09:22:47;105.00;;;10.83;;
29026;SDS011;16120;48.608;9.092;2023-09-30T09:26:43;105.40;;;10.77;;
29026;SDS011;16120;48.608;9.092;2023-09-30T09:30:39;103.82;;;9.85;;
29026;SDS011;16120;48.608;9.092;2023-09-30T09:34:34;104.20;;;10.13;;
29026;SDS011;16120;48.608;9.092;2023-09-30T09:38:43;104.20;;;9.73;;
29026;SDS011;16120;48.608;9.092;2023-09-30T09:42:38;103.13;;;9.63;;
29026;SDS011;16120;48.608;9.092;2023-09-30T09:46:35;103.80;;;10.57;;
29026;SDS011;16120;48.608;9.092;2023-09-30T09:50:30;103.97;;;10.30;;
29026;SDS011;16120;48.608;9.092;2023-09-30T09:54:26;103.13;;;10.57;;
29026;SDS011;16120;48.608;9.092;2023-09-30T09:58:22;103.67;;;11.23;;
29026;SDS011;16120;48.608;9.092;2023-09-30T10:02:19;103.47;;;10.70;;
29026;SDS011;16120;48.608;9.092;2023-09-30T10:06:14;103.60;;;11.00;;
29026;SDS011;16120;48.608;9.092;2023-09-30T10:10:11;103.40;;;11.33;;
29026;SDS011;16120;48.608;9.092;2023-09-30T10:14:08;103.77;;;11.20;;
29026;SDS011;16120;48.608;9.092;2023-09-30T10:18:05;103.37;;;10.53;;
29026;SDS011;16120;48.608;9.092;2023-09-30T10:22:20;102.97;;;10.10;;
29026;SDS011;16120;48.608;9.092;2023-09-30T10:26:15;102.37;;;9.53;;
29026;SDS011;16120;48.608;9.092;2023-09-30T10:30:10;103.63;;;10.30;;
29026;SDS011;16120;48.608;9.092;2023-09-30T10:34:20;102.77;;;9.80;;
29026;SDS011;16120;48.608;9.092;2023-09-30T10:42:46;103.87;;;10.10;;
29026;SDS011;16120;48.608;9.092;2023-09-30T10:46:42;103.17;;;9.60;;
29026;SDS011;16120;48.608;9.092;2023-09-30T10:50:51;103.37;;;10.43;;
29026;SDS011;16120;48.608;9.092;2023-09-30T10:54:46;104.10;;;9.63;;
29026;SDS011;16120;48.608;9.092;2023-09-30T10:58:42;102.90;;;9.70;;
29026;SDS011;16120;48.608;9.092;2023-09-30T11:02:50;103.07;;;10.07;;
29026;SDS011;16120;48.608;9.092;2023-09-30T11:06:47;101.90;;;9.50;;
29026;SDS011;16120;48.608;9.092;2023-09-30T11:10:46;102.17;;;9.63;;
29026;SDS011;16120;48.608;9.092;2023-09-30T11:14:42;102.57;;;9.93;;
29026;SDS011;16120;48.608;9.092;2023-09-30T11:18:37;102.17;;;9.50;;
29026;SDS011;16120;48.608;9.092;2023-09-30T11:22:35;102.90;;;10.17;;
29026;SDS011;16120;48.608;9.092;2023-09-30T11:26:30;102.60;;;10.60;;
29026;SDS011;16120;48.608;9.092;2023-09-30T11:30:27;101.90;;;9.80;;
29026;SDS011;16120;48.608;9.092;2023-09-30T11:34:30;102.47;;;10.27;;
29026;SDS011;16120;48.608;9.092;2023-09-30T11:38:27;101.93;;;11.13;;
29026;SDS011;16120;48.608;9.092;2023-09-30T11:42:22;102.33;;;10.93;;
29026;SDS011;16120;48.608;9.092;2023-09-30T11:46:18;101.33;;;10.27;;
29026;SDS011;16120;48.608;9.092;2023-09-30T11:50:13;102.33;;;10.30;;
29026;SDS011;16120;48.608;9.092;2023-09-30T11:54:10;102.10;;;10.40;;
29026;SDS011;16120;48.608;9.092;2023-09-30T11:58:06;102.20;;;10.23;;
29026;SDS011;16120;48.608;9.092;2023-09-30T12:02:01;102.50;;;10.47;;
29026;SDS011;16120;48.608;9.092;2023-09-30T12:05:57;101.87;;;9.47;;
29026;SDS011;16120;48.608;9.092;2023-09-30T12:09:54;103.60;;;10.33;;
29026;SDS011;16120;48.608;9.092;2023-09-30T12:13:51;101.80;;;10.17;;
29026;SDS011;16120;48.608;9.092;2023-09-30T12:17:46;101.40;;;10.03;;
29026;SDS011;16120;48.608;9.092;2023-09-30T12:21:42;102.57;;;11.20;;
29026;SDS011;16120;48.608;9.092;2023-09-30T12:25:38;101.17;;;10.00;;
29026;SDS011;16120;48.608;9.092;2023-09-30T12:29:34;101.93;;;9.90;;
29026;SDS011;16120;48.608;9.092;2023-09-30T12:33:29;101.60;;;9.70;;
29026;SDS011;16120;48.608;9.092;2023-09-30T12:37:24;102.67;;;9.90;;
29026;SDS011;16120;48.608;9.092;2023-09-30T12:41:21;102.37;;;11.97;;
29026;SDS011;16120;48.608;9.092;2023-09-30T12:45:16;101.70;;;10.37;;
29026;SDS011;16120;48.608;9.092;2023-09-30T12:49:11;101.93;;;10.50;;
29026;SDS011;16120;48.608;9.092;2023-09-30T12:53:07;102.20;;;10.30;;
29026;SDS011;16120;48.608;9.092;2023-09-30T12:57:03;101.60;;;9.87;;
29026;SDS011;16120;48.608;9.092;2023-09-30T13:00:59;101.87;;;10.50;;
29026;SDS011;16120;48.608;9.092;2023-09-30T13:04:54;102.20;;;10.13;;
29026;SDS011;16120;48.608;9.092;2023-09-30T13:08:49;101.37;;;9.97;;
29026;SDS011;16120;48.608;9.092;2023-09-30T13:12:46;100.93;;;10.63;;
29026;SDS011;16120;48.608;9.092;2023-09-30T13:16:41;101.87;;;11.10;;
29026;SDS011;16120;48.608;9.092;2023-09-30T13:20:36;101.83;;;10.30;;
29026;SDS011;16120;48.608;9.092;2023-09-30T13:24:31;101.57;;;10.57;;
29026;SDS011;16120;48.608;9.092;2023-09-30T13:28:28;101.53;;;10.57;;
29026;SDS011;16120;48.608;9.092;2023-09-30T13:32:24;101.87;;;11.43;;
29026;SDS011;16120;48.608;9.092;2023-09-30T13:36:20;102.03;;;10.17;;
29026;SDS011;16120;48.608;9.092;2023-09-30T13:40:15;101.90;;;10.03;;
29026;SDS011;16120;48.608;9.092;2023-09-30T13:44:14;103.30;;;10.03;;
29026;SDS011;16120;48.608;9.092;2023-09-30T13:48:09;102.40;;;10.30;;
29026;SDS011;16120;48.608;9.092;2023-09-30T13:52:04;104.47;;;11.00;;
29026;SDS011;16120;48.608;9.092;2023-09-30T13:55:59;101.97;;;10.50;;
29026;SDS011;16120;48.608;9.092;2023-09-30T13:59:56;102.90;;;10.27;;
29026;SDS011;16120;48.608;9.092;2023-09-30T14:03:51;101.67;;;10.30;;
29026;SDS011;16120;48.608;9.092;2023-09-30T14:07:46;103.07;;;10.30;;
29026;SDS011;16120;48.608;9.092;2023-09-30T14:11:41;101.80;;;10.13;;
29026;SDS011;16120;48.608;9.092;2023-09-30T14:15:38;101.90;;;10.00;;
29026;SDS011;16120;48.608;9.092;2023-09-30T14:19:34;103.10;;;10.20;;
29026;SDS011;16120;48.608;9.092;2023-09-30T14:23:29;102.87;;;9.83;;
29026;SDS011;16120;48.608;9.092;2023-09-30T14:27:24;103.20;;;10.40;;
29026;SDS011;16120;48.608;9.092;2023-09-30T14:31:22;102.77;;;9.80;;
29026;SDS011;16120;48.608;9.092;2023-09-30T14:35:17;102.60;;;10.13;;
29026;SDS011;16120;48.608;9.092;2023-09-30T14:39:12;103.72;;;10.15;;
29026;SDS011;16120;48.608;9.092;2023-09-30T14:43:07;104.03;;;10.57;;
29026;SDS011;16120;48.608;9.092;2023-09-30T14:47:04;103.47;;;10.80;;
29026;SDS011;16120;48.608;9.092;2023-09-30T14:50:59;103.90;;;10.87;;
29026;SDS011;16120;48.608;9.092;2023-09-30T14:54:56;103.70;;;10.10;;
29026;SDS011;16120;48.608;9.092;2023-09-30T14:58:51;103.20;;;10.43;;
29026;SDS011;16120;48.608;9.092;2023-09-30T15:02:48;102.37;;;8.67;;
29026;SDS011;16120;48.608;9.092;2023-09-30T15:06:43;102.80;;;9.97;;
29026;SDS011;16120;48.608;9.092;2023-09-30T15:10:38;103.23;;;9.67;;
29026;SDS011;16120;48.608;9.092;2023-09-30T15:14:34;102.57;;;9.47;;
29026;SDS011;16120;48.608;9.092;2023-09-30T15:18:31;103.23;;;9.80;;
29026;SDS011;16120;48.608;9.092;2023-09-30T15:22:26;103.40;;;10.53;;
29026;SDS011;16120;48.608;9.092;2023-09-30T15:26:21;103.30;;;10.37;;
29026;SDS011;16120;48.608;9.092;2023-09-30T15:30:17;103.90;;;10.90;;
29026;SDS011;16120;48.608;9.092;2023-09-30T15:34:13;103.07;;;10.43;;
29026;SDS011;16120;48.608;9.092;2023-09-30T15:38:08;102.87;;;9.30;;
29026;SDS011;16120;48.608;9.092;2023-09-30T15:42:04;103.67;;;10.30;;
29026;SDS011;16120;48.608;9.092;2023-09-30T15:45:59;103.57;;;9.80;;
29026;SDS011;16120;48.608;9.092;2023-09-30T15:49:56;102.53;;;9.32;;
29026;SDS011;16120;48.608;9.092;2023-09-30T15:53:51;103.97;;;9.40;;
29026;SDS011;16120;48.608;9.092;2023-09-30T15:57:46;103.67;;;9.80;;
29026;SDS011;16120;48.608;9.092;2023-09-30T16:01:41;103.87;;;10.83;;
29026;SDS011;16120;48.608;9.092;2023-09-30T16:05:38;102.77;;;9.97;;
29026;SDS011;16120;48.608;9.092;2023-09-30T16:09:33;104.43;;;9.87;;
29026;SDS011;16120;48.608;9.092;2023-09-30T16:13:29;103.97;;;9.53;;
29026;SDS011;16120;48.608;9.092;2023-09-30T16:17:24;103.90;;;9.40;;
29026;SDS011;16120;48.608;9.092;2023-09-30T16:21:20;104.17;;;9.50;;
29026;SDS011;16120;48.608;9.092;2023-09-30T16:25:16;103.47;;;9.23;;
29026;SDS011;16120;48.608;9.092;2023-09-30T16:29:11;103.77;;;9.37;;
29026;SDS011;16120;48.608;9.092;2023-09-30T16:33:06;104.27;;;9.60;;
29026;SDS011;16120;48.608;9.092;2023-09-30T16:37:03;104.63;;;10.63;;
29026;SDS011;16120;48.608;9.092;2023-09-30T16:40:58;105.37;;;9.70;;
29026;SDS011;16120;48.608;9.092;2023-09-30T16:44:54;105.43;;;9.37;;
29026;SDS011;16120;48.608;9.092;2023-09-30T16:48:50;105.27;;;8.90;;
29026;SDS011;16120;48.608;9.092;2023-09-30T16:56:44;104.90;;;9.60;;
29026;SDS011;16120;48.608;9.092;2023-09-30T17:00:39;104.53;;;9.53;;
29026;SDS011;16120;48.608;9.092;2023-09-30T17:04:35;104.30;;;9.57;;
29026;SDS011;16120;48.608;9.092;2023-09-30T17:08:30;104.87;;;10.13;;
29026;SDS011;16120;48.608;9.092;2023-09-30T17:12:27;104.87;;;9.83;;
29026;SDS011;16120;48.608;9.092;2023-09-30T17:16:23;104.87;;;9.53;;
29026;SDS011;16120;48.608;9.092;2023-09-30T17:20:18;105.07;;;10.37;;
29026;SDS011;16120;48.608;9.092;2023-09-30T17:24:13;105.50;;;10.20;;
29026;SDS011;16120;48.608;9.092;2023-09-30T17:28:10;104.87;;;9.53;;
29026;SDS011;16120;48.608;9.092;2023-09-30T17:32:05;105.20;;;9.97;;
29026;SDS011;16120;48.608;9.092;2023-09-30T17:36:01;105.00;;;9.60;;
29026;SDS011;16120;48.608;9.092;2023-09-30T17:39:56;105.60;;;10.60;;
29026;SDS011;16120;48.608;9.092;2023-09-30T17:43:53;105.60;;;9.17;;
29026;SDS011;16120;48.608;9.092;2023-09-30T17:47:48;106.10;;;10.20;;
29026;SDS011;16120;48.608;9.092;2023-09-30T17:51:43;105.57;;;9.60;;
29026;SDS011;16120;48.608;9.092;2023-09-30T17:55:40;105.67;;;9.93;;
29026;SDS011;16120;48.608;9.092;2023-09-30T17:59:36;105.83;;;9.80;;
29026;SDS011;16120;48.608;9.092;2023-09-30T18:03:33;106.30;;;9.57;;
29026;SDS011;16120;48.608;9.092;2023-09-30T18:07:28;105.70;;;9.80;;
29026;SDS011;16120;48.608;9.092;2023-09-30T18:11:23;106.00;;;9.98;;
29026;SDS011;16120;48.608;9.092;2023-09-30T18:15:20;106.67;;;9.93;;
29026;SDS011;16120;48.608;9.092;2023-09-30T18:19:15;106.67;;;9.40;;
29026;SDS011;16120;48.608;9.092;2023-09-30T18:23:10;106.67;;;9.87;;
29026;SDS011;16120;48.608;9.092;2023-09-30T18:27:05;105.40;;;9.30;;
29026;SDS011;16120;48.608;9.092;2023-09-30T18:31:02;106.50;;;9.27;;
29026;SDS011;16120;48.608;9.092;2023-09-30T18:34:57;105.97;;;9.27;;
29026;SDS011;16120;48.608;9.092;2023-09-30T18:38:53;105.97;;;8.97;;
29026;SDS011;16120;48.608;9.092;2023-09-30T18:42:48;106.90;;;9.80;;
29026;SDS011;16120;48.608;9.092;2023-09-30T18:46:45;107.93;;;9.48;;
29026;SDS011;16120;48.608;9.092;2023-09-30T18:50:40;106.77;;;9.13;;
29026;SDS011;16120;48.608;9.092;2023-09-30T18:54:37;106.60;;;9.40;;
29026;SDS011;16120;48.608;9.092;2023-09-30T18:58:32;106.60;;;8.97;;
29026;SDS011;16120;48.608;9.092;2023-09-30T19:02:29;106.30;;;8.97;;
29026;SDS011;16120;48.608;9.092;2023-09-30T19:06:24;106.40;;;8.97;;
29026;SDS011;16120;48.608;9.092;2023-09-30T19:10:20;107.50;;;9.17;;
29026;SDS011;16120;48.608;9.092;2023-09-30T19:14:16;107.47;;;9.13;;
29026;SDS011;16120;48.608;9.092;2023-09-30T19:18:12;108.17;;;9.37;;
29026;SDS011;16120;48.608;9.092;2023-09-30T19:22:07;108.17;;;9.17;;
29026;SDS011;16120;48.608;9.092;2023-09-30T19:26:03;108.00;;;9.37;;
29026;SDS011;16120;48.608;9.092;2023-09-30T19:29:58;107.43;;;9.68;;
29026;SDS011;16120;48.608;9.092;2023-09-30T19:33:55;108.30;;;9.83;;
29026;SDS011;16120;48.608;9.092;2023-09-30T19:37:50;107.93;;;9.87;;
29026;SDS011;16120;48.608;9.092;2023-09-30T19:41:46;107.90;;;8.90;;
29026;SDS011;16120;48.608;9.092;2023-09-30T19:45:41;107.33;;;9.27;;
29026;SDS011;16120;48.608;9.092;2023-09-30T19:49:37;108.63;;;9.47;;
29026;SDS011;16120;48.608;9.092;2023-09-30T19:53:35;108.67;;;9.63;;
29026;SDS011;16120;48.608;9.092;2023-09-30T19:57:30;108.60;;;9.60;;
29026;SDS011;16120;48.608;9.092;2023-09-30T20:01:25;108.17;;;9.07;;
29026;SDS011;16120;48.608;9.092;2023-09-30T20:05:22;108.77;;;9.27;;
29026;SDS011;16120;48.608;9.092;2023-09-30T20:09:17;108.53;;;9.20;;
29026;SDS011;16120;48.608;9.092;2023-09-30T20:13:13;108.27;;;8.90;;
29026;SDS011;16120;48.608;9.092;2023-09-30T20:17:08;109.37;;;9.10;;
29026;SDS011;16120;48.608;9.092;2023-09-30T20:21:07;108.07;;;9.23;;
29026;SDS011;16120;48.608;9.092;2023-09-30T20:25:03;109.07;;;8.90;;
29026;SDS011;16120;48.608;9.092;2023-09-30T20:28:58;109.30;;;9.20;;
29026;SDS011;16120;48.608;9.092;2023-09-30T20:32:53;108.80;;;8.70;;
29026;SDS011;16120;48.608;9.092;2023-09-30T20:36:50;108.97;;;8.80;;
29026;SDS011;16120;48.608;9.092;2023-09-30T20:40:45;109.17;;;9.20;;
29026;SDS011;16120;48.608;9.092;2023-09-30T20:44:40;109.32;;;9.35;;
29026;SDS011;16120;48.608;9.092;2023-09-30T20:48:35;110.07;;;8.97;;
29026;SDS011;16120;48.608;9.092;2023-09-30T20:52:32;108.83;;;8.97;;
29026;SDS011;16120;48.608;9.092;2023-09-30T20:56:27;109.97;;;9.23;;
29026;SDS011;16120;48.608;9.092;2023-09-30T21:00:22;109.20;;;8.83;;
29026;SDS011;16120;48.608;9.092;2023-09-30T21:04:17;110.00;;;8.93;;
29026;SDS011;16120;48.608;9.092;2023-09-30T21:08:14;109.23;;;8.97;;
29026;SDS011;16120;48.608;9.092;2023-09-30T21:12:09;109.07;;;9.00;;
29026;SDS011;16120;48.608;9.092;2023-09-30T21:16:04;108.97;;;9.10;;
29026;SDS011;16120;48.608;9.092;2023-09-30T21:20:00;108.67;;;9.03;;
29026;SDS011;16120;48.608;9.092;2023-09-30T21:23:56;110.17;;;8.87;;
29026;SDS011;16120;48.608;9.092;2023-09-30T21:32:05;110.60;;;9.10;;
29026;SDS011;16120;48.608;9.092;2023-09-30T21:36:01;110.30;;;9.37;;
29026;SDS011;16120;48.608;9.092;2023-09-30T21:39:57;110.90;;;9.00;;
29026;SDS011;16120;48.608;9.092;2023-09-30T21:43:52;110.73;;;8.97;;
29026;SDS011;16120;48.608;9.092;2023-09-30T21:47:48;111.47;;;8.80;;
29026;SDS011;16120;48.608;9.092;2023-09-30T21:51:43;110.30;;;8.70;;
29026;SDS011;16120;48.608;9.092;2023-09-30T21:55:39;110.97;;;8.50;;
29026;SDS011;16120;48.608;9.092;2023-09-30T21:59:35;110.70;;;8.73;;
29026;SDS011;16120;48.608;9.092;2023-09-30T22:03:30;110.87;;;9.00;;
29026;SDS011;16120;48.608;9.092;2023-09-30T22:07:25;110.90;;;8.77;;
29026;SDS011;16120;48.608;9.092;2023-09-30T22:11:22;110.47;;;8.83;;
29026;SDS011;16120;48.608;9.092;2023-09-30T22:15:17;111.27;;;8.60;;
29026;SDS011;16120;48.608;9.092;2023-09-30T22:19:12;110.53;;;8.88;;
29026;SDS011;16120;48.608;9.092;2023-09-30T22:23:07;111.37;;;9.17;;
29026;SDS011;16120;48.608;9.092;2023-09-30T22:27:04;111.30;;;9.40;;
29026;SDS011;16120;48.608;9.092;2023-09-30T22:30:59;110.87;;;9.00;;
29026;SDS011;16120;48.608;9.092;2023-09-30T22:34:54;111.63;;;9.37;;
29026;SDS011;16120;48.608;9.092;2023-09-30T22:38:50;111.37;;;9.20;;
29026;SDS011;16120;48.608;9.092;2023-09-30T22:47:00;111.47;;;9.70;;
29026;SDS011;16120;48.608;9.092;2023-09-30T22:50:55;111.67;;;9.40;;
29026;SDS011;16120;48.608;9.092;2023-09-30T22:54:50;111.70;;;9.50;;
29026;SDS011;16120;48.608;9.092;2023-09-30T22:58:46;111.27;;;9.10;;
29026;SDS011;16120;48.608;9.092;2023-09-30T23:02:42;111.40;;;9.47;;
29026;SDS011;16120;48.608;9.092;2023-09-30T23:06:38;111.67;;;9.27;;
29026;SDS011;16120;48.608;9.092;2023-09-30T23:10:33;111.77;;;9.17;;
29026;SDS011;16120;48.608;9.092;2023-09-30T23:14:28;111.50;;;9.00;;